createdAt,value
2019-04-22T00:03:47.440Z,47.30
2019-04-22T00:06:39.460Z,47.40
2019-04-22T00:09:11.179Z,47.50
2019-04-22T00:11:46.691Z,47.20
2019-04-22T00:18:26.697Z,47.70
2019-04-22T00:31:51.726Z,47.90
2019-04-22T00:34:16.401Z,48.30
2019-04-22T00:36:52.550Z,48.40
2019-04-22T00:39:33.627Z,48.60
2019-04-22T00:41:56.951Z,48.30
2019-04-22T00:44:33.251Z,48.50
2019-04-22T00:47:07.365Z,48.60
2019-04-22T00:50:06.668Z,48.90
2019-04-22T00:52:13.410Z,49.10
2019-04-22T00:54:48.942Z,49.10
2019-04-22T00:57:15.417Z,49.00
2019-04-22T00:59:47.096Z,48.70
2019-04-22T01:02:22.982Z,49.00
2019-04-22T01:04:54.461Z,48.80
2019-04-22T01:07:25.384Z,48.90
2019-04-22T01:10:01.372Z,48.80
2019-04-22T01:12:35.650Z,48.60
2019-04-22T01:15:01.003Z,48.50
2019-04-22T01:17:35.832Z,48.80
2019-04-22T01:20:13.211Z,48.80
2019-04-22T01:22:38.326Z,48.30
2019-04-22T01:25:12.927Z,48.00
2019-04-22T01:27:46.074Z,48.00
2019-04-22T01:30:11.175Z,48.20
2019-04-22T01:32:39.986Z,47.40
2019-04-22T01:35:20.777Z,47.30
2019-04-22T01:37:54.191Z,46.90
2019-04-22T01:40:45.717Z,46.40
2019-04-22T01:43:18.540Z,46.30
2019-04-22T01:46:02.621Z,46.60
2019-04-22T01:48:39.368Z,46.20
2019-04-22T01:51:08.209Z,46.00
2019-04-22T01:53:54.771Z,46.10
2019-04-22T01:56:19.506Z,45.80
2019-04-22T01:58:48.228Z,46.40
2019-04-22T02:01:22.113Z,46.20
2019-04-22T02:06:30.330Z,46.00
2019-04-22T02:09:09.429Z,46.00
2019-04-22T02:11:48.759Z,46.70
2019-04-22T02:14:11.579Z,46.30
2019-04-22T02:16:41.278Z,46.40
2019-04-22T02:19:19.018Z,46.70
2019-04-22T02:21:48.569Z,46.70
2019-04-22T02:24:27.152Z,46.80
2019-04-22T02:27:10.489Z,47.10
2019-04-22T02:29:31.047Z,47.20
2019-04-22T02:39:42.813Z,47.50
2019-04-22T02:44:47.082Z,47.50
2019-04-22T02:50:02.057Z,47.30
2019-04-22T02:55:09.637Z,47.60
2019-04-22T02:57:35.210Z,47.30
2019-04-22T03:02:54.580Z,47.70
2019-04-22T03:05:19.450Z,47.20
2019-04-22T03:07:55.974Z,46.80
2019-04-22T03:10:29.855Z,46.70
2019-04-22T03:12:53.409Z,46.70
2019-04-22T03:15:19.987Z,46.70
2019-04-22T03:18:03.003Z,47.00
2019-04-22T03:20:29.123Z,47.20
2019-04-22T03:28:14.479Z,46.70
2019-04-22T03:31:09.306Z,47.50
2019-04-22T03:33:26.084Z,47.60
2019-04-22T03:36:10.681Z,47.80
2019-04-22T03:38:43.528Z,47.70
2019-04-22T03:41:09.247Z,47.70
2019-04-22T03:43:35.185Z,48.00
2019-04-22T03:46:01.200Z,48.20
2019-04-22T03:48:45.393Z,48.30
2019-04-22T03:51:33.878Z,48.40
2019-04-22T03:54:10.522Z,48.50
2019-04-22T03:57:26.610Z,48.50
2019-04-22T03:59:39.966Z,48.50
2019-04-22T04:04:36.069Z,48.70
2019-04-22T04:07:20.177Z,48.90
2019-04-22T04:12:23.724Z,49.10
2019-04-22T04:17:29.292Z,49.30
2019-04-22T04:20:05.680Z,49.30
2019-04-22T04:22:46.505Z,49.60
2019-04-22T04:28:22.945Z,50.20
2019-04-22T04:30:14.823Z,50.20
2019-04-22T04:37:52.767Z,50.50
2019-04-22T04:40:26.787Z,50.80
2019-04-22T04:42:54.430Z,50.80
2019-04-22T04:48:13.719Z,51.50
2019-04-22T04:50:53.483Z,51.40
2019-04-22T05:03:20.711Z,51.90
2019-04-22T05:05:54.649Z,52.10
2019-04-22T05:08:35.365Z,52.20
2019-04-22T05:13:23.450Z,52.20
2019-04-22T05:16:10.743Z,52.40
2019-04-22T05:18:29.634Z,52.30
2019-04-22T05:21:09.561Z,52.50
2019-04-22T05:23:30.472Z,52.80
2019-04-22T05:26:07.465Z,52.70
2019-04-22T05:28:38.136Z,53.00
2019-04-22T05:31:16.110Z,52.70
2019-04-22T05:33:46.258Z,52.80
2019-04-22T05:36:12.649Z,52.70
2019-04-22T05:41:35.258Z,52.50
2019-04-22T05:44:15.820Z,52.50
2019-04-22T05:46:49.837Z,52.50
2019-04-22T05:49:27.199Z,52.40
2019-04-22T05:51:54.987Z,52.40
2019-04-22T05:57:03.842Z,52.30
2019-04-22T05:59:39.552Z,52.20
2019-04-22T06:02:30.623Z,52.00
2019-04-22T06:05:01.779Z,52.10
2019-04-22T06:07:26.479Z,52.10
2019-04-22T06:10:08.201Z,52.20
2019-04-22T06:12:26.257Z,51.90
2019-04-22T06:15:08.210Z,51.80
2019-04-22T06:17:49.250Z,51.40
2019-04-22T06:20:15.364Z,51.60
2019-04-22T06:23:00.196Z,50.70
2019-04-22T06:25:34.852Z,49.70
2019-04-22T06:28:04.907Z,49.70
2019-04-22T06:30:29.110Z,48.70
2019-04-22T06:33:05.926Z,48.60
2019-04-22T06:35:36.324Z,48.40
2019-04-22T06:38:30.149Z,47.80
2019-04-22T06:41:08.954Z,47.20
2019-04-22T06:43:50.129Z,46.80
2019-04-22T06:46:17.212Z,46.60
2019-04-22T06:48:51.998Z,46.40
2019-04-22T06:57:06.128Z,45.00
2019-04-22T07:00:00.524Z,44.60
2019-04-22T07:02:38.926Z,44.40
2019-04-22T07:05:01.029Z,44.40
2019-04-22T07:07:31.172Z,44.90
2019-04-22T07:10:16.725Z,44.30
2019-04-22T07:12:35.209Z,44.00
2019-04-22T07:15:24.470Z,44.10
2019-04-22T07:17:49.117Z,44.00
2019-04-22T07:20:17.987Z,42.30
2019-04-22T07:22:51.479Z,42.60
2019-04-22T07:25:27.673Z,42.70
2019-04-22T07:27:58.298Z,42.20
2019-04-22T07:30:26.293Z,42.00
2019-04-22T07:35:46.414Z,41.70
2019-04-22T07:38:19.056Z,41.10
2019-04-22T07:40:50.399Z,40.50
2019-04-22T07:43:27.919Z,40.50
2019-04-22T07:45:49.375Z,40.30
2019-04-22T07:48:33.296Z,40.20
2019-04-22T07:51:23.603Z,40.20
2019-04-22T07:53:52.145Z,39.80
2019-04-22T07:56:27.655Z,39.40
2019-04-22T07:58:58.712Z,39.10
2019-04-22T08:01:29.550Z,39.30
2019-04-22T08:06:52.305Z,38.40
2019-04-22T08:09:08.010Z,39.00
2019-04-22T08:14:24.267Z,39.10
2019-04-22T08:17:14.068Z,39.30
2019-04-22T08:19:45.614Z,38.60
2019-04-22T08:22:10.406Z,38.80
2019-04-22T08:27:15.359Z,39.30
2019-04-22T08:30:08.598Z,39.30
2019-04-22T08:32:36.121Z,38.10
2019-04-22T08:37:57.668Z,38.00
2019-04-22T08:40:47.160Z,38.00
2019-04-22T08:59:50.289Z,37.00
2019-04-22T09:09:25.038Z,35.00
2019-04-22T09:14:40.567Z,35.00
2019-04-22T09:17:10.385Z,35.20
2019-04-22T09:19:40.509Z,34.60
2019-04-22T09:22:23.276Z,34.20
2019-04-22T09:24:56.048Z,33.50
2019-04-22T09:27:52.569Z,33.70
2019-04-22T09:33:06.087Z,33.00
2019-04-22T09:35:45.360Z,32.50
2019-04-22T09:47:07.955Z,32.10
2019-04-22T10:33:25.783Z,28.10
2019-04-22T10:39:18.323Z,27.20
2019-04-22T10:41:50.487Z,26.60
2019-04-22T10:44:23.535Z,27.00
2019-04-22T10:46:55.914Z,26.90
2019-04-22T10:49:26.902Z,26.40
2019-04-22T10:51:58.349Z,26.10
2019-04-22T10:54:29.694Z,26.40
2019-04-22T10:57:08.920Z,26.40
2019-04-22T10:59:42.663Z,25.80
2019-04-22T11:02:21.503Z,25.80
2019-04-22T11:08:07.760Z,26.00
2019-04-22T11:10:56.470Z,25.70
2019-04-22T11:13:58.297Z,25.60
2019-04-22T11:28:16.029Z,22.80
2019-04-22T11:35:28.014Z,23.20
2019-04-22T12:04:16.045Z,24.40
2019-04-22T12:11:24.272Z,23.20
2019-04-22T12:14:38.250Z,23.10
2019-04-22T12:31:31.584Z,22.30
2019-04-22T12:34:29.148Z,22.10
2019-04-22T12:37:07.016Z,21.90
2019-04-22T12:39:53.012Z,20.30
2019-04-22T12:42:27.200Z,21.00
2019-04-22T12:45:00.430Z,20.20
2019-04-22T12:47:50.439Z,20.80
2019-04-22T12:50:33.724Z,20.50
2019-04-22T12:53:13.860Z,20.10
2019-04-22T12:55:54.899Z,20.10
2019-04-22T12:58:35.664Z,20.30
2019-04-22T13:01:17.362Z,20.00
2019-04-22T13:04:14.215Z,20.70
2019-04-22T13:06:57.812Z,20.20
2019-04-22T13:09:29.619Z,19.90
2019-04-22T13:12:01.237Z,20.50
2019-04-22T13:14:32.766Z,20.50
2019-04-22T13:17:04.031Z,20.90
2019-04-22T13:19:36.138Z,21.10
2019-04-22T13:22:07.095Z,20.90
2019-04-22T13:24:37.849Z,20.10
2019-04-22T13:27:08.882Z,20.80
2019-04-22T13:29:41.160Z,20.20
2019-04-22T13:32:13.180Z,20.10
2019-04-22T13:34:57.986Z,19.40
2019-04-22T13:37:26.890Z,19.60
2019-04-22T13:39:57.339Z,19.50
2019-04-22T13:42:29.549Z,20.10
2019-04-22T13:45:00.175Z,20.60
2019-04-22T13:47:46.553Z,21.30
2019-04-22T13:50:36.425Z,22.40
2019-04-22T13:53:05.907Z,22.30
2019-04-22T13:55:41.890Z,22.30
2019-04-22T13:57:57.235Z,22.90
2019-04-22T14:00:18.296Z,22.70
2019-04-22T14:03:10.722Z,22.40
2019-04-22T14:05:42.605Z,23.00
2019-04-22T14:08:14.571Z,23.20
2019-04-22T14:10:45.445Z,23.20
2019-04-22T14:13:16.165Z,22.90
2019-04-22T14:15:46.845Z,22.70
2019-04-22T14:18:17.243Z,22.50
2019-04-22T14:20:49.010Z,22.80
2019-04-22T14:23:20.475Z,23.00
2019-04-22T14:25:50.919Z,22.90
2019-04-22T14:28:23.261Z,22.50
2019-04-22T14:30:54.641Z,22.30
2019-04-22T14:33:24.974Z,22.50
2019-04-22T14:35:56.401Z,21.90
2019-04-22T14:38:27.991Z,21.50
2019-04-22T14:40:58.615Z,21.60
2019-04-22T14:44:00.178Z,21.50
2019-04-22T14:46:29.538Z,21.80
2019-04-22T14:48:57.620Z,21.80
2019-04-22T14:51:27.747Z,22.00
2019-04-22T14:53:55.540Z,22.30
2019-04-22T14:56:12.796Z,22.60
2019-04-22T14:58:44.764Z,22.90
2019-04-22T15:01:16.929Z,23.00
2019-04-22T15:03:48.335Z,22.80
2019-04-22T15:06:20.201Z,22.30
2019-04-22T15:08:51.241Z,22.60
2019-04-22T15:11:23.220Z,22.70
2019-04-22T15:13:53.683Z,22.60
2019-04-22T15:16:43.103Z,23.00
2019-04-22T15:19:34.158Z,23.30
2019-04-22T15:22:05.028Z,23.30
2019-04-22T15:24:36.700Z,23.30
2019-04-22T15:27:08.641Z,23.80
2019-04-22T15:29:39.218Z,23.50
2019-04-22T15:32:09.679Z,23.40
2019-04-22T15:34:41.500Z,24.00
2019-04-22T15:37:13.976Z,23.70
2019-04-22T15:39:45.720Z,23.90
2019-04-22T15:42:24.009Z,23.60
2019-04-22T15:44:48.146Z,23.50
2019-04-22T15:47:18.884Z,23.80
2019-04-22T15:49:49.928Z,23.80
2019-04-22T15:52:28.174Z,24.00
2019-04-22T15:54:53.985Z,23.80
2019-04-22T15:57:24.710Z,23.90
2019-04-22T16:00:10.570Z,24.30
2019-04-22T16:02:31.719Z,24.30
2019-04-22T16:05:02.771Z,24.60
2019-04-22T16:07:33.824Z,24.40
2019-04-22T16:10:05.991Z,24.00
2019-04-22T16:12:49.183Z,23.50
2019-04-22T16:15:11.265Z,23.20
2019-04-22T16:17:42.480Z,23.40
2019-04-22T16:20:13.318Z,23.40
2019-04-22T16:23:05.587Z,23.30
2019-04-22T16:25:53.562Z,23.40
2019-04-22T16:28:25.117Z,23.30
2019-04-22T16:30:57.516Z,23.30
2019-04-22T16:33:31.074Z,23.50
2019-04-22T16:36:02.760Z,23.50
2019-04-22T16:38:33.411Z,23.30
2019-04-22T16:41:03.864Z,23.50
2019-04-22T16:43:34.440Z,23.60
2019-04-22T16:46:07.634Z,23.50
2019-04-22T16:48:38.170Z,24.00
2019-04-22T16:51:09.913Z,23.50
2019-04-22T16:53:41.136Z,23.50
2019-04-22T16:56:12.997Z,23.30
2019-04-22T16:58:43.438Z,23.30
2019-04-22T17:01:40.943Z,23.90
2019-04-22T17:04:18.772Z,24.30
2019-04-22T17:06:49.770Z,24.90
2019-04-22T17:09:21.620Z,24.90
2019-04-22T17:11:53.887Z,25.20
2019-04-22T17:14:32.344Z,25.80
2019-04-22T17:16:56.832Z,26.00
2019-04-22T17:19:27.192Z,26.10
2019-04-22T17:21:59.545Z,26.50
2019-04-22T17:24:31.873Z,26.90
2019-04-22T17:27:02.661Z,27.00
2019-04-22T17:29:34.657Z,27.20
2019-04-22T17:32:10.223Z,27.70
2019-04-22T17:34:37.646Z,27.80
2019-04-22T17:37:16.737Z,27.90
2019-04-22T17:39:58.367Z,28.10
2019-04-22T17:42:40.241Z,28.30
2019-04-22T17:45:21.989Z,28.20
2019-04-22T17:48:25.745Z,28.40
2019-04-22T17:50:59.946Z,28.30
2019-04-22T17:53:34.368Z,28.70
2019-04-22T17:56:02.711Z,28.80
2019-04-22T17:58:34.723Z,28.50
2019-04-22T18:01:09.215Z,28.50
2019-04-22T18:03:28.016Z,28.60
2019-04-22T18:05:56.182Z,28.40
2019-04-22T18:08:44.207Z,28.50
2019-04-22T18:11:25.331Z,28.30
2019-04-22T18:13:58.923Z,28.10
2019-04-22T18:16:26.002Z,28.20
2019-04-22T18:18:53.241Z,28.20
2019-04-22T18:21:25.639Z,28.00
2019-04-22T18:23:52.359Z,27.70
2019-04-22T18:26:24.324Z,27.60
2019-04-22T18:29:02.758Z,27.60
2019-04-22T18:31:28.642Z,27.70
2019-04-22T18:34:00.658Z,27.50
2019-04-22T18:36:33.189Z,27.90
2019-04-22T18:39:20.426Z,27.70
2019-04-22T18:41:47.070Z,27.60
2019-04-22T18:44:25.086Z,27.40
2019-04-22T18:46:51.221Z,27.50
2019-04-22T18:49:26.922Z,27.50
2019-04-22T18:52:01.112Z,27.40
2019-04-22T18:54:54.498Z,27.40
2019-04-22T18:57:22.618Z,27.20
2019-04-22T18:59:41.108Z,27.30
2019-04-22T19:02:14.273Z,27.40
2019-04-22T19:04:53.063Z,27.40
2019-04-22T19:07:42.389Z,27.50
2019-04-22T19:10:17.251Z,27.60
2019-04-22T19:13:01.957Z,27.60
2019-04-22T19:15:18.956Z,27.70
2019-04-22T19:17:55.186Z,27.80
2019-04-22T19:20:24.081Z,27.80
2019-04-22T19:22:53.564Z,28.00
2019-04-22T19:25:17.265Z,28.10
2019-04-22T19:27:56.592Z,28.00
2019-04-22T19:30:30.334Z,28.10
2019-04-22T19:33:06.093Z,28.10
2019-04-22T19:35:29.995Z,28.30
2019-04-22T19:38:00.092Z,28.40
2019-04-22T19:40:47.892Z,28.40
2019-04-22T19:43:15.502Z,28.50
2019-04-22T19:45:40.708Z,28.80
2019-04-22T19:48:31.149Z,29.20
2019-04-22T19:51:00.167Z,28.90
2019-04-22T19:53:22.700Z,29.10
2019-04-22T19:55:49.648Z,29.20
2019-04-22T19:58:26.166Z,29.50
2019-04-22T20:01:13.206Z,30.00
2019-04-22T20:04:16.215Z,30.10
2019-04-22T20:07:05.212Z,30.20
2019-04-22T20:09:41.924Z,30.50
2019-04-22T20:12:05.830Z,31.00
2019-04-22T20:14:41.613Z,31.10
2019-04-22T20:17:13.161Z,31.60
2019-04-22T20:19:51.206Z,32.40
2019-04-22T20:22:17.710Z,32.50
2019-04-22T20:24:44.851Z,32.50
2019-04-22T20:27:28.497Z,32.90
2019-04-22T20:29:58.157Z,33.40
2019-04-22T20:32:26.394Z,33.40
2019-04-22T20:35:09.353Z,34.10
2019-04-22T20:37:38.573Z,33.70
2019-04-22T20:40:10.362Z,33.80
2019-04-22T20:42:48.771Z,33.90
2019-04-22T20:45:18.342Z,34.30
2019-04-22T20:47:36.861Z,34.40
2019-04-22T20:50:20.975Z,34.60
2019-04-22T20:52:59.280Z,34.70
2019-04-22T20:55:23.448Z,34.90
2019-04-22T20:58:02.352Z,35.30
2019-04-22T21:00:25.236Z,35.20
2019-04-22T21:02:54.218Z,35.30
2019-04-22T21:05:32.731Z,35.60
2019-04-22T21:08:11.424Z,36.00
2019-04-22T21:10:33.396Z,36.20
2019-04-22T21:13:07.037Z,36.20
2019-04-22T21:15:55.398Z,36.80
2019-04-22T21:18:13.507Z,36.30
2019-04-22T21:20:56.257Z,36.40
2019-04-22T21:23:21.046Z,36.70
2019-04-22T21:25:55.285Z,36.60
2019-04-22T21:28:25.995Z,36.80
2019-04-22T21:31:01.119Z,37.10
2019-04-22T21:33:27.015Z,37.20
2019-04-22T21:36:13.834Z,37.30
2019-04-22T21:38:40.676Z,37.30
2019-04-22T21:41:09.877Z,37.60
2019-04-22T21:43:42.176Z,37.60
2019-04-22T21:46:29.184Z,37.80
2019-04-22T21:48:46.293Z,37.90
2019-04-22T21:51:25.216Z,38.30
2019-04-22T21:54:00.295Z,38.20
2019-04-22T21:59:03.399Z,38.30
2019-04-22T22:01:50.044Z,38.40
2019-04-22T22:04:14.254Z,38.30
2019-04-22T22:06:35.927Z,38.50
2019-04-22T22:09:15.300Z,38.60
2019-04-22T22:11:44.552Z,38.70
2019-04-22T22:14:18.036Z,38.80
2019-04-22T22:16:47.273Z,38.90
2019-04-22T22:19:24.983Z,38.90
2019-04-22T22:22:28.582Z,39.20
2019-04-22T22:24:34.178Z,39.00
2019-04-22T22:27:04.851Z,39.00
2019-04-22T22:29:50.319Z,39.20
2019-04-22T22:32:11.648Z,39.20
2019-04-22T22:34:39.496Z,39.30
2019-04-22T22:37:03.500Z,40.20
2019-04-22T22:39:36.683Z,39.70
2019-04-22T22:41:54.370Z,39.60
2019-04-22T22:44:32.420Z,39.70
2019-04-22T22:47:15.806Z,39.80
2019-04-22T22:49:52.864Z,39.90
2019-04-22T22:52:53.654Z,40.00
2019-04-22T22:55:00.296Z,40.10
2019-04-22T22:57:35.202Z,40.30
2019-04-22T22:59:58.630Z,40.20
2019-04-22T23:02:28.113Z,40.30
2019-04-22T23:05:07.290Z,40.20
2019-04-22T23:07:44.577Z,40.30
2019-04-22T23:10:09.734Z,40.20
2019-04-22T23:13:01.858Z,40.20
2019-04-22T23:15:10.657Z,40.30
2019-04-22T23:17:29.423Z,40.90
2019-04-22T23:19:59.401Z,40.30
2019-04-22T23:22:41.557Z,40.70
2019-04-22T23:25:27.092Z,40.70
2019-04-22T23:28:06.017Z,40.60
2019-04-22T23:30:40.058Z,40.80
2019-04-22T23:33:26.588Z,40.90
2019-04-22T23:36:07.197Z,40.80
2019-04-22T23:38:51.865Z,41.10
2019-04-22T23:46:48.405Z,41.30
2019-04-22T23:49:17.440Z,41.40
2019-04-22T23:52:02.759Z,41.20
2019-04-22T23:54:31.279Z,41.40
2019-04-22T23:57:00.241Z,41.50
2019-04-22T23:59:44.957Z,41.50
